Alamogordo White Sands Regional Airport
KALM : rendu visible

Aérodrome :











RETROUVEZ-NOUS SUR...

 
LOGIN :

S'inscrire | Disclaimer

   EN    FR    IT 

 









Légende :    VFR   VFR Marginal   IFR   IFR Intensif   IFR Très Intensif
Visi : 
Plafond : 
>= 8 km
>= 3000ft
5 à 8 km
1000 à 3000 ft
1500m à 5 km
500 à 1000 ft
800 à 1500m
200 à 500 ft
< 800m
< 200 ft
Symboles :   Orages  Brouillard  Fortes neiges  Fortes précipitations  Vent > 20 kt






- Altitude de l'aérodrome : 4200 ft
- Code IATA : ALM


KALM - Alamogordo White Sands Regional

DERNIER METAR :
  • 241015Z AUTO 18005KT 10SM CLR 13/04 A3007 RMK AO2

METARs EXPIRÉS :
  • 240955Z AUTO 16006KT 10SM CLR 15/04 A3006 RMK AO2
  • 240935Z AUTO 12003KT 10SM CLR 17/03 A3006 RMK AO2
  • 240915Z AUTO 00000KT 10SM CLR 18/04 A3006 RMK AO2
  • 240855Z AUTO 07003KT 10SM CLR 19/03 A3006 RMK AO2
  • 240835Z AUTO 03003KT 10SM CLR 19/03 A3007 RMK AO2
  • 240815Z AUTO 02005KT 10SM CLR 20/04 A3007 RMK AO2
  • 240755Z AUTO 03005KT 10SM CLR 20/04 A3008 RMK AO2
  • 240735Z AUTO 02006KT 10SM CLR 20/04 A3008 RMK AO2

TAF N/A
FIR KZAB / Amérique du Nord



MET'MAP, la Météo Aéronautique d'un coup d'oeil ! - Copyright ORBIFLY Décembre 2007 - Disclaimer

ORBIFLY MET'MAP TEAM :

Programmation & Développement : Alexandra Zaïnal
Sur une idée originale de : Baudouin d'Aumeries
Assistance à la programmation : Marc-Olivier Méhu
Soutien technique & logistique : Manuel Goepfert

Contact : metmap@orbifly.com




SOURCES & CREDITS :

   NOAA       Earth
Advisory